Time;durP1;ratioP1;P1;durP2;ratioP2;P2;SDS_P1;SDS_P2;PMS_P1;PMS_P2;Temp;Humidity;BMP_temperature;BMP_pressure;BME280_temperature;BME280_humidity;BME280_pressure;Samples;Min_cycle;Max_cycle;Signal;HPM_P1;HPM_P2
2022/12/29 00:01:49;;;;;;;1.98;0.77;;;10.30;99.90;;;;;;6249218;22;20014;-80
2022/12/29 00:04:15;;;;;;;2.85;0.70;;;10.30;99.90;;;;;;6301989;22;20086;-81
2022/12/29 00:06:42;;;;;;;2.38;0.80;;;10.20;99.90;;;;;;6301859;22;20090;-81
2022/12/29 00:09:11;;;;;;;1.40;0.60;;;10.20;99.90;;;;;;6249673;22;20007;-81
2022/12/29 00:11:36;;;;;;;1.58;0.75;;;10.20;99.90;;;;;;6302906;22;20030;-81
2022/12/29 00:16:46;;;;;;;1.40;0.52;;;10.20;99.90;;;;;;6303694;22;19999;-81
2022/12/29 00:36:21;;;;;;;1.23;0.50;;;10.30;99.90;;;;;;6275780;22;20111;-81
2022/12/29 00:44:22;;;;;;;1.20;0.50;;;10.30;99.90;;;;;;6275900;22;20015;-81
2022/12/29 00:46:48;;;;;;;1.20;0.50;;;10.30;99.90;;;;;;6274709;22;20076;-80
2022/12/29 00:49:32;;;;;;;1.10;0.65;;;10.30;99.90;;;;;;6249869;22;20007;-80
2022/12/29 00:52:03;;;;;;;1.75;0.68;;;10.30;99.90;;;;;;6275573;22;20377;-80
2022/12/29 00:54:31;;;;;;;1.05;0.43;;;10.30;99.90;;;;;;6302213;22;20478;-81
2022/12/29 00:56:57;;;;;;;0.90;0.40;;;10.20;99.90;;;;;;6275202;22;20011;-79
2022/12/29 00:59:23;;;;;;;0.98;0.40;;;10.20;99.90;;;;;;6275616;22;20011;-80
2022/12/29 01:01:51;;;;;;;1.48;0.40;;;10.20;99.90;;;;;;6274900;22;20094;-80
2022/12/29 01:04:17;;;;;;;0.95;0.30;;;10.10;99.90;;;;;;6275452;22;20018;-80
2022/12/29 01:06:43;;;;;;;1.15;0.30;;;10.20;99.90;;;;;;6303070;22;20058;-79
2022/12/29 01:11:55;;;;;;;0.60;0.20;;;10.20;99.90;;;;;;6274734;22;20014;-80
2022/12/29 01:14:21;;;;;;;1.13;0.10;;;10.20;99.90;;;;;;6252199;22;20056;-80
2022/12/29 01:16:48;;;;;;;0.40;0.20;;;10.20;99.90;;;;;;6305137;22;20316;-80
2022/12/29 01:19:16;;;;;;;0.60;0.10;;;10.10;99.90;;;;;;6252210;22;20032;-80
2022/12/29 01:21:42;;;;;;;0.77;0.13;;;10.10;99.90;;;;;;6251629;22;20086;-80
2022/12/29 01:24:08;;;;;;;1.23;0.10;;;10.00;99.90;;;;;;6302325;22;20373;-80
2022/12/29 01:26:34;;;;;;;0.82;0.10;;;10.00;99.90;;;;;;6277441;22;20411;-81
2022/12/29 01:29:00;;;;;;;0.50;0.10;;;10.00;99.90;;;;;;6277042;22;20014;-80
2022/12/29 01:31:25;;;;;;;0.40;0.10;;;9.90;99.90;;;;;;6277055;22;20034;-80
2022/12/29 01:33:52;;;;;;;2.45;0.20;;;9.90;99.90;;;;;;6302739;22;20011;-80
2022/12/29 01:36:19;;;;;;;0.75;0.15;;;9.90;99.90;;;;;;6277016;22;20007;-81
2022/12/29 01:38:45;;;;;;;0.60;0.10;;;9.90;99.90;;;;;;6276820;22;20035;-80
2022/12/29 01:41:13;;;;;;;0.25;0.10;;;9.90;99.90;;;;;;6251360;22;20018;-81
2022/12/29 01:43:50;;;;;;;0.65;0.10;;;9.80;99.90;;;;;;6277528;22;20125;-81
2022/12/29 01:46:38;;;;;;;0.25;0.05;;;9.80;99.90;;;;;;6277052;22;20011;-80
2022/12/29 01:49:26;;;;;;;0.20;0.10;;;9.80;99.90;;;;;;6276466;22;20007;-80
2022/12/29 01:52:00;;;;;;;0.63;0.10;;;9.90;99.90;;;;;;6275488;22;20432;-80
2022/12/29 01:54:29;;;;;;;0.75;0.20;;;9.90;99.90;;;;;;6245826;22;20015;-80
2022/12/29 01:56:58;;;;;;;0.70;0.30;;;10.00;99.90;;;;;;6220596;22;20016;-80
2022/12/29 01:59:30;;;;;;;1.00;0.30;;;10.00;99.90;;;;;;6246179;22;20012;-80
2022/12/29 02:01:56;;;;;;;0.73;0.30;;;10.10;99.90;;;;;;6246082;22;20079;-80
2022/12/29 02:04:24;;;;;;;0.93;0.30;;;10.10;99.90;;;;;;6246331;22;20031;-80
2022/12/29 02:06:55;;;;;;;1.60;0.40;;;10.10;99.90;;;;;;6245301;22;20020;-80
2022/12/29 02:09:23;;;;;;;1.00;0.50;;;10.20;99.90;;;;;;6246314;22;20016;-80
2022/12/29 02:11:50;;;;;;;0.80;0.32;;;10.20;99.90;;;;;;6246211;22;20054;-80
2022/12/29 02:14:17;;;;;;;0.75;0.40;;;10.20;99.90;;;;;;6273661;22;20079;-80
2022/12/29 02:17:00;;;;;;;1.00;0.40;;;10.30;99.90;;;;;;6221180;22;20112;-80
2022/12/29 02:19:41;;;;;;;2.05;0.50;;;10.40;99.90;;;;;;6220710;22;20014;-80
2022/12/29 02:22:39;;;;;;;0.88;0.40;;;10.40;99.90;;;;;;6220459;22;20372;-80
2022/12/29 02:25:15;;;;;;;0.63;0.20;;;10.40;99.90;;;;;;6220309;22;20007;-80
2022/12/29 02:28:07;;;;;;;0.80;0.30;;;10.40;99.90;;;;;;6221275;22;20443;-80
2022/12/29 02:30:54;;;;;;;1.30;0.73;;;10.40;99.90;;;;;;6246332;22;20452;-80
2022/12/29 02:33:45;;;;;;;0.75;0.20;;;10.40;99.90;;;;;;6245973;22;20015;-80
2022/12/29 02:36:45;;;;;;;0.73;0.20;;;10.40;99.90;;;;;;6245449;22;20008;-80
2022/12/29 02:39:34;;;;;;;0.45;0.10;;;10.50;99.90;;;;;;6241115;22;20094;-81
2022/12/29 02:42:07;;;;;;;0.60;0.20;;;10.40;99.90;;;;;;6229518;22;20007;-81
2022/12/29 02:45:03;;;;;;;0.77;0.20;;;10.30;99.90;;;;;;6220670;22;20097;-80
2022/12/29 02:47:38;;;;;;;0.38;0.10;;;10.40;99.90;;;;;;6220686;22;20020;-81
2022/12/29 02:50:23;;;;;;;0.90;0.20;;;10.40;99.90;;;;;;6244981;22;20016;-82
2022/12/29 02:53:00;;;;;;;1.08;0.20;;;10.50;99.90;;;;;;6245728;22;20089;-80
2022/12/29 02:55:26;;;;;;;0.93;0.20;;;10.60;99.90;;;;;;6275522;22;20026;-80
2022/12/29 02:58:11;;;;;;;0.70;0.20;;;10.60;99.90;;;;;;6250815;22;20313;-81
2022/12/29 03:00:48;;;;;;;3.58;0.20;;;10.50;99.90;;;;;;6276863;22;20090;-81
2022/12/29 03:03:39;;;;;;;0.93;0.10;;;10.50;99.90;;;;;;6251170;22;20313;-82
2022/12/29 03:06:31;;;;;;;1.30;0.20;;;10.50;99.90;;;;;;6275783;22;20021;-81
2022/12/29 03:09:19;;;;;;;0.45;0.10;;;10.60;99.90;;;;;;6250446;22;20183;-81
2022/12/29 03:12:10;;;;;;;0.95;0.10;;;10.60;99.90;;;;;;6250687;22;20022;-81
2022/12/29 03:17:57;;;;;;;1.77;0.13;;;10.50;99.90;;;;;;6276428;22;20416;-81
2022/12/29 03:20:44;;;;;;;2.00;0.20;;;10.60;99.90;;;;;;6276008;22;19999;-82
2022/12/29 03:23:13;;;;;;;0.82;0.10;;;10.60;99.90;;;;;;6276058;22;20022;-81
2022/12/29 03:25:46;;;;;;;1.63;0.15;;;10.50;99.90;;;;;;6250961;22;20007;-82
2022/12/29 03:28:17;;;;;;;0.80;0.20;;;10.60;99.90;;;;;;6275434;22;20396;-82
2022/12/29 03:30:46;;;;;;;2.38;0.50;;;10.50;99.90;;;;;;6251028;22;20003;-81
2022/12/29 03:33:23;;;;;;;1.48;0.10;;;10.50;99.90;;;;;;6251425;22;20011;-82
2022/12/29 03:35:52;;;;;;;1.77;0.10;;;10.50;99.90;;;;;;6275375;22;20007;-82
2022/12/29 03:38:21;;;;;;;1.40;0.10;;;10.50;99.90;;;;;;6276611;22;20007;-83
2022/12/29 03:40:51;;;;;;;1.27;0.10;;;10.50;99.90;;;;;;6250682;22;20014;-82
2022/12/29 03:43:18;;;;;;;1.05;0.10;;;10.50;99.90;;;;;;6250997;22;20007;-83
2022/12/29 03:45:46;;;;;;;1.85;0.10;;;10.40;99.90;;;;;;6251138;22;20134;-82
2022/12/29 03:48:11;;;;;;;0.63;0.10;;;10.50;99.90;;;;;;6250120;22;20015;-82
2022/12/29 03:50:40;;;;;;;0.50;0.10;;;10.40;99.90;;;;;;6275927;22;20003;-83
2022/12/29 03:53:06;;;;;;;1.00;0.03;;;10.50;99.90;;;;;;6250117;22;20015;-82
2022/12/29 03:55:32;;;;;;;1.02;0.20;;;10.50;99.90;;;;;;6250722;22;20003;-82
2022/12/29 03:57:58;;;;;;;1.73;0.10;;;10.60;99.90;;;;;;6250063;22;20448;-82
2022/12/29 04:00:45;;;;;;;1.15;0.20;;;10.60;99.90;;;;;;6275996;22;20335;-82
2022/12/29 04:03:11;;;;;;;0.80;0.10;;;10.60;99.90;;;;;;6249694;22;20008;-82
2022/12/29 04:05:37;;;;;;;1.88;0.10;;;10.50;99.90;;;;;;6275666;22;20014;-82
2022/12/29 04:08:02;;;;;;;0.75;0.10;;;10.50;99.90;;;;;;6275303;22;20003;-82
2022/12/29 04:10:28;;;;;;;0.95;0.10;;;10.60;99.90;;;;;;6302206;22;20030;-82
2022/12/29 04:12:57;;;;;;;1.48;0.10;;;10.50;99.90;;;;;;6300049;22;20014;-82
2022/12/29 04:15:26;;;;;;;1.23;0.10;;;10.50;99.90;;;;;;6250686;22;20072;-82
2022/12/29 04:17:52;;;;;;;1.45;0.10;;;10.50;99.90;;;;;;6274887;22;20081;-82
2022/12/29 04:23:06;;;;;;;1.67;0.10;;;10.40;99.90;;;;;;6275496;22;20003;-81
2022/12/29 04:25:34;;;;;;;0.70;0.10;;;10.50;99.90;;;;;;6250398;22;20008;-82
2022/12/29 04:28:00;;;;;;;1.60;0.10;;;10.50;99.90;;;;;;6275598;22;20014;-82
2022/12/29 04:30:46;;;;;;;0.40;0.10;;;10.50;99.90;;;;;;6303473;22;20339;-82
2022/12/29 04:33:34;;;;;;;1.48;0.10;;;10.50;99.90;;;;;;6254333;22;20018;-81
2022/12/29 04:36:01;;;;;;;0.68;0.10;;;10.40;99.90;;;;;;6275618;22;20014;-81
2022/12/29 04:38:27;;;;;;;3.20;0.10;;;10.40;99.90;;;;;;6250696;22;20367;-82
2022/12/29 04:40:53;;;;;;;0.35;0.00;;;10.40;99.90;;;;;;6250513;22;20011;-82
2022/12/29 04:43:22;;;;;;;1.42;0.10;;;10.40;99.90;;;;;;6249976;22;20062;-81
2022/12/29 04:46:10;;;;;;;1.52;0.10;;;10.40;99.90;;;;;;6278307;22;20019;-81
2022/12/29 04:48:48;;;;;;;1.13;0.10;;;10.50;99.90;;;;;;6298351;22;20058;-80
2022/12/29 04:51:37;;;;;;;0.77;0.10;;;10.50;99.90;;;;;;6237973;23;20523;-81
2022/12/29 04:54:04;;;;;;;0.77;0.10;;;10.40;99.90;;;;;;6212200;23;20027;-80
2022/12/29 04:56:31;;;;;;;1.52;0.15;;;10.30;99.90;;;;;;6213184;23;20020;-80
2022/12/29 04:58:57;;;;;;;0.70;0.10;;;10.10;99.90;;;;;;6187863;23;20016;-80
2022/12/29 05:01:22;;;;;;;1.60;0.10;;;10.10;99.90;;;;;;6209924;23;20004;-81
2022/12/29 05:03:51;;;;;;;1.98;0.10;;;10.10;99.90;;;;;;6212118;23;20016;-81
2022/12/29 05:06:16;;;;;;;1.17;0.10;;;10.00;99.90;;;;;;6212684;23;20514;-80
2022/12/29 05:08:42;;;;;;;1.23;0.10;;;10.00;99.90;;;;;;6187751;23;20064;-80
2022/12/29 05:11:08;;;;;;;1.50;0.10;;;10.00;99.90;;;;;;6212705;23;20346;-81
2022/12/29 05:13:34;;;;;;;0.82;0.10;;;10.00;99.90;;;;;;6212683;23;20012;-80
2022/12/29 05:16:00;;;;;;;1.00;0.10;;;9.90;99.90;;;;;;6211346;23;20091;-80
2022/12/29 05:18:26;;;;;;;2.05;0.10;;;10.00;99.90;;;;;;6212952;23;20430;-81
2022/12/29 05:20:53;;;;;;;1.15;0.10;;;10.00;99.90;;;;;;6212044;23;20485;-81
2022/12/29 05:23:20;;;;;;;1.60;0.10;;;10.00;99.90;;;;;;6237598;23;20012;-80
2022/12/29 05:25:52;;;;;;;2.90;0.20;;;9.90;99.90;;;;;;6212319;23;20004;-80
2022/12/29 05:28:25;;;;;;;1.00;0.20;;;9.80;99.90;;;;;;6238859;22;20019;-79
2022/12/29 05:30:57;;;;;;;4.63;0.20;;;9.80;99.90;;;;;;6273779;22;20034;-81
2022/12/29 05:33:22;;;;;;;2.38;0.10;;;9.80;99.90;;;;;;6274951;22;20011;-81
2022/12/29 05:35:50;;;;;;;1.83;0.20;;;9.70;99.90;;;;;;6275187;22;20007;-81
2022/12/29 05:38:16;;;;;;;3.10;0.20;;;9.70;99.90;;;;;;6299688;22;20463;-80
2022/12/29 05:40:43;;;;;;;2.45;0.17;;;9.70;99.90;;;;;;6274776;22;20007;-80
2022/12/29 05:43:31;;;;;;;1.73;0.10;;;9.60;99.90;;;;;;6253391;22;20014;-82
2022/12/29 05:46:09;;;;;;;2.08;0.20;;;9.50;99.90;;;;;;6299095;22;20011;-81
2022/12/29 05:48:44;;;;;;;2.78;0.20;;;9.40;99.90;;;;;;6303140;22;20030;-81
2022/12/29 05:51:16;;;;;;;3.00;0.20;;;9.40;99.90;;;;;;6273076;22;20447;-81
2022/12/29 05:53:47;;;;;;;1.33;0.20;;;9.30;99.90;;;;;;6250326;22;20015;-81
2022/12/29 05:56:13;;;;;;;1.23;0.10;;;9.20;99.90;;;;;;6275667;22;20041;-81
2022/12/29 05:58:40;;;;;;;3.92;0.10;;;9.10;99.90;;;;;;6275270;22;19999;-81
2022/12/29 06:01:06;;;;;;;1.77;0.17;;;9.10;99.90;;;;;;6276877;22;20007;-81
2022/12/29 06:03:31;;;;;;;1.40;0.10;;;9.10;99.90;;;;;;6276492;22;20013;-81
2022/12/29 06:05:58;;;;;;;1.05;0.10;;;9.10;99.90;;;;;;6276708;22;20011;-80
2022/12/29 06:08:25;;;;;;;1.55;0.65;;;9.10;99.90;;;;;;6251566;22;20011;-79
2022/12/29 06:10:51;;;;;;;4.13;0.30;;;9.10;99.90;;;;;;6276393;22;20430;-80
2022/12/29 06:13:16;;;;;;;2.45;0.38;;;9.10;99.90;;;;;;6276333;22;20011;-80
2022/12/29 06:15:44;;;;;;;2.15;0.20;;;9.10;99.90;;;;;;6276813;22;20373;-80
2022/12/29 06:18:10;;;;;;;2.40;0.20;;;9.10;99.90;;;;;;6251062;22;20034;-81
2022/12/29 06:20:36;;;;;;;4.13;0.30;;;9.20;99.90;;;;;;6276810;22;20011;-80
2022/12/29 06:23:07;;;;;;;3.17;0.20;;;9.20;99.90;;;;;;6303751;22;20077;-80
2022/12/29 06:25:33;;;;;;;3.22;0.20;;;9.10;99.90;;;;;;6276685;22;20428;-80
2022/12/29 06:28:00;;;;;;;3.60;0.30;;;9.10;99.90;;;;;;6275776;22;20383;-80
2022/12/29 06:30:26;;;;;;;2.83;0.63;;;9.10;99.90;;;;;;6251598;22;20090;-80
2022/12/29 06:32:52;;;;;;;2.28;0.10;;;9.10;99.90;;;;;;6276299;22;20007;-79
2022/12/29 06:35:18;;;;;;;3.15;0.20;;;9.00;99.90;;;;;;6276838;22;20007;-80
2022/12/29 06:37:48;;;;;;;4.63;0.38;;;8.90;99.90;;;;;;6302084;22;20007;-80
2022/12/29 06:40:14;;;;;;;3.17;0.20;;;9.00;99.90;;;;;;6276637;22;20011;-81
2022/12/29 06:43:00;;;;;;;2.42;0.20;;;9.00;99.90;;;;;;6270343;22;20072;-81
2022/12/29 06:45:46;;;;;;;4.60;0.20;;;9.00;99.90;;;;;;6279803;22;20018;-81
2022/12/29 06:48:12;;;;;;;2.97;0.10;;;8.90;99.90;;;;;;6303135;22;20057;-80
2022/12/29 06:50:37;;;;;;;3.45;0.20;;;8.80;99.90;;;;;;6304600;22;20003;-81
2022/12/29 06:53:03;;;;;;;1.75;0.10;;;8.90;99.90;;;;;;6303297;22;20139;-80
2022/12/29 06:55:29;;;;;;;1.75;0.10;;;9.00;99.90;;;;;;6276339;22;20018;-81
2022/12/29 06:57:58;;;;;;;4.47;0.20;;;9.20;99.90;;;;;;6301527;22;20100;-81
2022/12/29 07:00:25;;;;;;;1.83;0.13;;;9.20;99.90;;;;;;6276873;22;20018;-80
2022/12/29 07:02:51;;;;;;;3.47;0.30;;;9.10;99.90;;;;;;6275749;22;20237;-81
2022/12/29 07:05:16;;;;;;;2.40;0.20;;;9.10;99.90;;;;;;6304201;22;20015;-81
2022/12/29 07:07:42;;;;;;;2.45;0.17;;;9.10;99.90;;;;;;6276650;22;20015;-80
2022/12/29 07:10:08;;;;;;;3.33;0.20;;;9.20;99.90;;;;;;6275460;22;20389;-80
2022/12/29 07:12:33;;;;;;;2.92;0.10;;;9.30;99.90;;;;;;6276422;22;20019;-80
2022/12/29 07:14:59;;;;;;;3.38;0.20;;;9.30;99.90;;;;;;6303404;22;20434;-81
2022/12/29 07:17:25;;;;;;;3.38;0.20;;;9.20;99.90;;;;;;6276261;22;20520;-81
2022/12/29 07:19:50;;;;;;;1.90;0.10;;;9.20;99.90;;;;;;6250933;22;20592;-80
2022/12/29 07:22:16;;;;;;;3.40;0.20;;;9.20;99.90;;;;;;6302168;22;19999;-81
2022/12/29 07:24:43;;;;;;;3.83;0.35;;;9.30;99.90;;;;;;6276369;22;20007;-81
2022/12/29 07:27:08;;;;;;;3.78;0.25;;;9.40;99.90;;;;;;6250028;22;20106;-80
2022/12/29 07:29:36;;;;;;;2.20;0.30;;;9.40;99.90;;;;;;6276009;22;20039;-81
2022/12/29 07:32:02;;;;;;;4.85;0.30;;;9.40;99.90;;;;;;6276053;22;20011;-81
2022/12/29 07:34:28;;;;;;;4.97;0.47;;;9.50;99.90;;;;;;6275904;22;20007;-82
2022/12/29 07:36:53;;;;;;;2.30;0.20;;;9.40;99.90;;;;;;6276060;22;20010;-82
2022/12/29 07:39:19;;;;;;;3.80;0.20;;;9.40;99.90;;;;;;6250226;22;20432;-82
2022/12/29 07:41:45;;;;;;;4.40;0.20;;;9.40;99.90;;;;;;6302659;22;20003;-81
2022/12/29 07:44:16;;;;;;;2.70;0.20;;;9.50;99.90;;;;;;6299595;22;20013;-82
2022/12/29 07:47:20;;;;;;;4.28;0.25;;;9.50;99.90;;;;;;6117200;23;20026;-81
2022/12/29 07:49:46;;;;;;;3.97;0.43;;;9.60;99.90;;;;;;6112057;23;20021;-82
2022/12/29 07:52:12;;;;;;;3.70;0.20;;;9.60;99.90;;;;;;6136668;23;20334;-81
2022/12/29 07:54:37;;;;;;;3.60;0.20;;;9.60;99.90;;;;;;6134799;23;20021;-81
2022/12/29 07:57:04;;;;;;;6.97;0.50;;;9.70;99.90;;;;;;6135106;23;20101;-82
2022/12/29 07:59:30;;;;;;;4.15;0.28;;;9.80;99.90;;;;;;6110788;23;20015;-82
2022/12/29 08:01:55;;;;;;;4.55;0.50;;;9.80;99.90;;;;;;6111001;23;20089;-80
2022/12/29 08:04:21;;;;;;;4.22;0.20;;;9.90;99.90;;;;;;6134790;23;20551;-81
2022/12/29 08:06:47;;;;;;;2.35;0.20;;;9.90;99.90;;;;;;6110947;23;20021;-81
2022/12/29 08:09:13;;;;;;;3.78;0.20;;;9.80;99.90;;;;;;6135357;23;20080;-81
2022/12/29 08:11:40;;;;;;;3.10;0.20;;;9.80;99.90;;;;;;6110444;23;20009;-81
2022/12/29 08:14:06;;;;;;;5.65;0.20;;;9.80;99.90;;;;;;6108888;23;20017;-81
2022/12/29 08:16:32;;;;;;;6.30;0.30;;;9.80;99.90;;;;;;6110312;23;20049;-80
2022/12/29 08:18:58;;;;;;;3.72;0.20;;;9.80;99.90;;;;;;6239000;22;20451;-81
2022/12/29 08:21:25;;;;;;;2.92;0.20;;;9.80;99.90;;;;;;6261889;22;20557;-81
2022/12/29 08:23:50;;;;;;;4.70;0.20;;;9.60;99.90;;;;;;6236213;22;20037;-81
2022/12/29 08:26:16;;;;;;;3.60;0.20;;;9.50;99.90;;;;;;6285779;22;20535;-81
2022/12/29 08:28:41;;;;;;;4.47;0.20;;;9.50;99.90;;;;;;6262474;22;20003;-81
2022/12/29 08:31:07;;;;;;;4.15;0.30;;;9.40;99.90;;;;;;6268663;22;20011;-81
2022/12/29 08:33:33;;;;;;;4.07;0.20;;;9.60;99.90;;;;;;6298001;22;20007;-82
2022/12/29 08:36:00;;;;;;;1.98;0.20;;;9.60;99.90;;;;;;6270322;22;20007;-81
2022/12/29 08:38:28;;;;;;;5.03;0.20;;;9.60;99.90;;;;;;6246150;22;20094;-81
2022/12/29 08:40:54;;;;;;;5.10;0.30;;;9.70;99.90;;;;;;6245972;22;20018;-81
2022/12/29 08:43:20;;;;;;;5.47;0.30;;;9.70;99.90;;;;;;6246968;22;20031;-81
2022/12/29 08:45:46;;;;;;;6.47;0.30;;;9.70;99.90;;;;;;6273127;22;20007;-80
2022/12/29 08:48:11;;;;;;;3.85;0.30;;;9.70;99.90;;;;;;6301800;22;20337;-81
2022/12/29 08:50:37;;;;;;;4.40;0.40;;;9.80;99.90;;;;;;6300811;22;19999;-79
2022/12/29 08:53:03;;;;;;;3.25;0.25;;;9.80;99.90;;;;;;6248360;22;20040;-79
2022/12/29 08:55:28;;;;;;;5.78;0.20;;;9.80;99.90;;;;;;6274443;22;20011;-80
2022/12/29 08:57:55;;;;;;;6.22;0.30;;;9.90;99.90;;;;;;6274284;22;20049;-81
2022/12/29 09:00:22;;;;;;;5.35;0.30;;;9.90;99.90;;;;;;6274930;22;20429;-81
2022/12/29 09:02:48;;;;;;;4.35;0.50;;;10.00;99.90;;;;;;6300088;22;20031;-81
2022/12/29 09:05:14;;;;;;;7.38;0.30;;;10.10;99.90;;;;;;6302224;22;20359;-81
2022/12/29 09:07:40;;;;;;;2.70;0.20;;;10.10;99.90;;;;;;6300000;22;20011;-81
2022/12/29 09:10:06;;;;;;;4.30;0.30;;;10.10;99.90;;;;;;6288341;22;20003;-81
2022/12/29 09:12:32;;;;;;;5.55;0.30;;;10.00;99.90;;;;;;6288346;22;20015;-79
2022/12/29 09:14:57;;;;;;;4.50;0.28;;;10.00;99.90;;;;;;6259710;22;20402;-81
2022/12/29 09:20:08;;;;;;;5.28;0.30;;;10.00;99.90;;;;;;6261661;22;20017;-79
2022/12/29 09:22:34;;;;;;;5.10;0.22;;;10.00;99.90;;;;;;6263026;22;20738;-80
2022/12/29 09:25:00;;;;;;;3.20;0.20;;;10.10;99.90;;;;;;6236757;22;20177;-81
2022/12/29 09:27:26;;;;;;;7.00;0.30;;;10.10;99.90;;;;;;6263036;22;20051;-79
2022/12/29 09:29:51;;;;;;;3.55;0.30;;;10.00;99.90;;;;;;6236851;22;20082;-79
2022/12/29 09:32:17;;;;;;;4.85;0.50;;;9.90;99.90;;;;;;6237339;22;20462;-78
2022/12/29 09:34:43;;;;;;;2.15;0.20;;;9.70;99.90;;;;;;6263250;22;20507;-80
2022/12/29 09:37:08;;;;;;;3.60;0.30;;;9.60;99.90;;;;;;6238588;22;20018;-79
2022/12/29 09:39:34;;;;;;;6.13;0.40;;;9.60;99.90;;;;;;6264196;22;20022;-80
2022/12/29 09:42:39;;;;;;;3.88;0.20;;;9.60;99.90;;;;;;6289751;22;20022;-79
2022/12/29 09:45:13;;;;;;;6.45;0.40;;;9.60;99.90;;;;;;6237618;22;20874;-79
2022/12/29 09:47:45;;;;;;;3.45;0.30;;;9.60;99.90;;;;;;6264319;22;20588;-79
2022/12/29 09:50:32;;;;;;;6.03;0.32;;;9.70;99.90;;;;;;6264125;22;20459;-79
2022/12/29 09:53:24;;;;;;;6.25;0.30;;;9.80;99.90;;;;;;6263438;22;20012;-79
2022/12/29 09:55:54;;;;;;;7.80;0.30;;;9.80;99.90;;;;;;6238765;22;20041;-78
2022/12/29 09:58:37;;;;;;;4.47;0.20;;;9.80;99.90;;;;;;6264297;22;20043;-79
2022/12/29 10:01:22;;;;;;;5.22;0.52;;;9.80;99.90;;;;;;6238108;22;20007;-79
2022/12/29 10:03:51;;;;;;;2.90;0.30;;;9.90;99.90;;;;;;6263042;22;20050;-79
2022/12/29 10:06:19;;;;;;;4.10;0.30;;;10.00;99.90;;;;;;6263966;22;20043;-80
2022/12/29 10:08:54;;;;;;;3.95;0.20;;;9.90;99.90;;;;;;6239204;22;20092;-80
2022/12/29 10:11:41;;;;;;;5.65;0.30;;;9.70;99.90;;;;;;6238181;22;20469;-78
2022/12/29 10:14:29;;;;;;;4.10;0.30;;;9.70;99.90;;;;;;6298158;22;20007;-79
2022/12/29 10:17:00;;;;;;;4.90;0.60;;;9.70;99.90;;;;;;6274127;22;20007;-78
2022/12/29 10:19:48;;;;;;;7.60;0.28;;;9.70;99.90;;;;;;6250624;22;20440;-79
2022/12/29 10:22:24;;;;;;;3.83;0.20;;;9.70;99.90;;;;;;6250294;22;20086;-80
2022/12/29 10:24:53;;;;;;;2.95;0.20;;;9.70;99.90;;;;;;6301983;22;20000;-78
2022/12/29 10:27:19;;;;;;;8.65;1.73;;;9.60;99.90;;;;;;6275835;22;20023;-79
2022/12/29 10:29:50;;;;;;;3.72;0.43;;;9.50;99.90;;;;;;6303373;22;20081;-79
2022/12/29 10:32:29;;;;;;;2.78;0.20;;;9.50;99.90;;;;;;6266045;22;20014;-78
2022/12/29 10:35:05;;;;;;;4.38;0.20;;;9.50;99.90;;;;;;6290704;22;20004;-80
2022/12/29 10:37:58;;;;;;;4.88;0.30;;;9.50;99.90;;;;;;6291644;22;20041;-78
2022/12/29 10:40:43;;;;;;;2.88;0.20;;;9.50;99.90;;;;;;6263571;22;20015;-78
2022/12/29 10:43:27;;;;;;;5.35;0.32;;;9.40;99.90;;;;;;6289884;22;20007;-77
2022/12/29 10:45:58;;;;;;;4.07;0.20;;;9.30;99.90;;;;;;6237100;22;20019;-79
2022/12/29 10:48:30;;;;;;;2.40;0.60;;;9.20;99.90;;;;;;6237346;22;20025;-78
2022/12/29 10:50:58;;;;;;;3.53;0.20;;;9.30;99.90;;;;;;6236854;22;20007;-80
2022/12/29 10:53:34;;;;;;;4.57;0.20;;;9.30;99.90;;;;;;6261276;22;20120;-80
2022/12/29 10:56:01;;;;;;;5.90;0.20;;;9.30;99.90;;;;;;6290165;22;20105;-78
2022/12/29 10:58:29;;;;;;;2.55;0.20;;;9.30;99.90;;;;;;6237142;22;20414;-78
2022/12/29 11:00:54;;;;;;;4.45;0.30;;;9.30;99.90;;;;;;6289569;22;20425;-79
2022/12/29 11:03:43;;;;;;;4.13;0.30;;;9.30;99.90;;;;;;6260907;22;20050;-79
2022/12/29 11:06:14;;;;;;;7.57;0.30;;;9.40;99.90;;;;;;6262238;22;20153;-80
2022/12/29 11:08:51;;;;;;;5.13;0.30;;;9.50;99.90;;;;;;6236956;22;20015;-79
2022/12/29 11:11:27;;;;;;;3.53;0.28;;;9.50;99.90;;;;;;6282246;22;20011;-81
2022/12/29 11:14:30;;;;;;;4.13;0.30;;;9.50;99.90;;;;;;6236513;22;20617;-79
2022/12/29 11:17:04;;;;;;;2.75;0.25;;;9.60;99.90;;;;;;6229380;22;20007;-80
2022/12/29 11:19:32;;;;;;;4.65;0.40;;;9.60;99.90;;;;;;6261933;22;20019;-78
2022/12/29 11:22:23;;;;;;;6.82;0.40;;;10.00;99.90;;;;;;6260552;22;20011;-79
2022/12/29 11:24:52;;;;;;;5.35;0.95;;;10.00;99.90;;;;;;6251284;22;20015;-78
2022/12/29 11:27:24;;;;;;;4.35;0.40;;;9.90;99.90;;;;;;6230861;22;20023;-80
2022/12/29 11:29:52;;;;;;;6.88;0.43;;;9.90;99.90;;;;;;6289248;22;20007;-77
2022/12/29 11:32:19;;;;;;;5.47;0.40;;;9.90;99.90;;;;;;6288345;22;20003;-78
2022/12/29 11:34:45;;;;;;;5.72;0.40;;;9.90;99.90;;;;;;6261942;22;20038;-79
2022/12/29 11:37:12;;;;;;;7.20;0.70;;;9.80;99.90;;;;;;6232126;22;20015;-80
2022/12/29 11:39:50;;;;;;;4.38;0.50;;;9.80;99.90;;;;;;6230196;22;20013;-78
2022/12/29 11:42:19;;;;;;;8.65;0.50;;;9.80;99.90;;;;;;6261184;22;20443;-79
2022/12/29 11:44:47;;;;;;;5.97;0.32;;;9.80;99.90;;;;;;6237012;22;20003;-79
2022/12/29 11:47:33;;;;;;;4.72;0.50;;;9.80;99.90;;;;;;6289395;22;20419;-81
2022/12/29 11:50:02;;;;;;;5.60;0.50;;;9.80;99.90;;;;;;6289587;22;20015;-81
2022/12/29 11:52:35;;;;;;;4.35;0.70;;;9.80;99.90;;;;;;6259974;22;20501;-81
2022/12/29 11:55:07;;;;;;;4.25;0.63;;;9.90;99.90;;;;;;6288892;22;20011;-80
2022/12/29 11:57:34;;;;;;;7.20;0.60;;;10.00;99.90;;;;;;6245578;22;20014;-81
2022/12/29 12:00:03;;;;;;;9.05;1.02;;;10.00;99.90;;;;;;6269253;22;20512;-81
2022/12/29 12:02:45;;;;;;;4.45;0.50;;;10.10;99.90;;;;;;6275396;22;20016;-82
2022/12/29 12:05:33;;;;;;;6.07;0.65;;;10.20;99.90;;;;;;6300744;22;20003;-82
2022/12/29 12:08:01;;;;;;;8.25;0.65;;;10.30;99.90;;;;;;6271977;22;20280;-82
2022/12/29 12:10:38;;;;;;;6.28;0.50;;;10.20;99.90;;;;;;6247433;22;20007;-81
2022/12/29 12:13:34;;;;;;;6.78;0.60;;;10.10;99.90;;;;;;6247668;22;20010;-80
2022/12/29 12:16:12;;;;;;;4.32;0.43;;;10.10;99.90;;;;;;6272487;22;20011;-81
2022/12/29 12:18:41;;;;;;;9.38;0.60;;;10.10;99.90;;;;;;6273110;22;20053;-82
2022/12/29 12:21:14;;;;;;;12.88;1.08;;;10.00;99.90;;;;;;6298539;22;20010;-81
2022/12/29 12:24:01;;;;;;;6.95;0.60;;;10.00;99.90;;;;;;6243247;22;20551;-80
2022/12/29 12:26:59;;;;;;;5.60;0.50;;;10.10;99.90;;;;;;6259065;22;20012;-81
2022/12/29 12:29:50;;;;;;;7.18;0.85;;;10.20;99.90;;;;;;6235637;22;20010;-80
2022/12/29 12:32:22;;;;;;;4.43;0.65;;;10.20;99.90;;;;;;6234472;22;20019;-81
2022/12/29 12:34:48;;;;;;;12.70;1.25;;;10.10;99.90;;;;;;6233935;22;20029;-81
2022/12/29 12:37:14;;;;;;;5.00;0.75;;;10.10;99.90;;;;;;6234659;22;20030;-81
2022/12/29 12:39:40;;;;;;;8.57;0.85;;;10.20;99.90;;;;;;6285927;22;20392;-82
2022/12/29 12:42:47;;;;;;;8.48;1.00;;;10.30;99.90;;;;;;6283050;22;20018;-81
2022/12/29 12:45:48;;;;;;;7.82;0.85;;;10.30;99.90;;;;;;6255722;22;20021;-83
2022/12/29 12:48:52;;;;;;;7.82;0.60;;;10.30;99.90;;;;;;6288216;22;20023;-80
2022/12/29 12:51:35;;;;;;;8.23;1.40;;;10.20;99.90;;;;;;6234647;22;20067;-81
2022/12/29 12:54:18;;;;;;;7.30;0.55;;;10.10;99.90;;;;;;6234459;22;20100;-81
2022/12/29 12:56:53;;;;;;;6.75;0.60;;;10.00;99.90;;;;;;6235127;22;20077;-79
2022/12/29 12:59:21;;;;;;;5.28;0.60;;;10.00;99.90;;;;;;6233238;22;20018;-80
2022/12/29 13:02:30;;;;;;;8.05;0.60;;;10.10;99.90;;;;;;6234714;22;20189;-80
2022/12/29 13:04:58;;;;;;;3.83;0.50;;;10.20;99.90;;;;;;6272240;22;20260;-80
2022/12/29 13:07:27;;;;;;;4.75;0.70;;;10.20;99.90;;;;;;6297824;22;20019;-80
2022/12/29 13:10:08;;;;;;;10.23;0.80;;;10.10;99.90;;;;;;6248396;22;20234;-80
2022/12/29 13:12:39;;;;;;;6.80;0.50;;;10.10;99.90;;;;;;6249785;22;20011;-81
2022/12/29 13:15:12;;;;;;;6.35;0.68;;;10.00;99.90;;;;;;6273383;22;20037;-80
2022/12/29 13:17:56;;;;;;;7.55;0.75;;;10.00;99.90;;;;;;6274180;22;20331;-81
2022/12/29 13:20:45;;;;;;;6.43;0.90;;;10.00;99.90;;;;;;6300669;22;20022;-80
2022/12/29 13:23:28;;;;;;;7.73;0.53;;;10.10;99.90;;;;;;6302290;22;20035;-81
2022/12/29 13:26:19;;;;;;;5.60;0.50;;;10.10;99.90;;;;;;6248846;22;20367;-80
2022/12/29 13:29:20;;;;;;;5.30;0.50;;;10.20;99.90;;;;;;6273254;22;20522;-82
2022/12/29 13:32:00;;;;;;;8.85;0.60;;;10.20;99.90;;;;;;6249075;22;20015;-81
2022/12/29 13:34:57;;;;;;;10.95;0.43;;;10.20;99.90;;;;;;6302260;22;20003;-81
2022/12/29 13:37:27;;;;;;;8.98;0.60;;;10.20;99.90;;;;;;6268274;22;20047;-82
2022/12/29 13:40:03;;;;;;;6.22;0.50;;;10.10;99.90;;;;;;6300837;22;20331;-81
2022/12/29 13:42:29;;;;;;;5.18;0.60;;;10.10;99.90;;;;;;6274629;22;20009;-81
2022/12/29 13:45:02;;;;;;;4.07;0.95;;;10.10;99.90;;;;;;6301963;22;20053;-82
2022/12/29 13:47:30;;;;;;;5.22;0.45;;;10.10;99.90;;;;;;6274763;22;20015;-82
2022/12/29 13:49:58;;;;;;;6.75;0.50;;;10.20;99.90;;;;;;6249351;22;20003;-83
2022/12/29 13:52:49;;;;;;;3.58;0.88;;;10.20;99.90;;;;;;6274732;22;20100;-83
2022/12/29 13:55:26;;;;;;;3.53;0.38;;;10.20;99.90;;;;;;6274892;22;20405;-81